createdAt,value
2022-09-10T00:02:13.507Z,4.05
2022-09-10T00:04:40.464Z,3.78
2022-09-10T00:07:07.242Z,4.35
2022-09-10T00:09:34.263Z,3.35
2022-09-10T00:12:01.176Z,4.25
2022-09-10T00:14:27.945Z,4.03
2022-09-10T00:16:55.261Z,3.78
2022-09-10T00:19:22.516Z,3.72
2022-09-10T00:21:50.823Z,4.70
2022-09-10T00:24:17.700Z,4.30
2022-09-10T00:26:45.558Z,3.40
2022-09-10T00:29:15.997Z,4.00
2022-09-10T00:31:43.601Z,3.30
2022-09-10T00:34:12.442Z,3.63
2022-09-10T00:36:41.830Z,4.63
2022-09-10T00:39:15.335Z,4.10
2022-09-10T00:41:45.056Z,3.90
2022-09-10T00:44:39.996Z,4.53
2022-09-10T00:47:22.436Z,4.15
2022-09-10T00:49:55.896Z,5.43
2022-09-10T00:52:23.121Z,4.45
2022-09-10T00:54:50.199Z,4.95
2022-09-10T00:57:24.520Z,4.38
2022-09-10T00:59:56.194Z,4.30
2022-09-10T01:02:23.116Z,3.63
2022-09-10T01:04:50.751Z,5.00
2022-09-10T01:07:19.020Z,4.15
2022-09-10T01:09:46.173Z,5.38
2022-09-10T01:12:22.378Z,4.93
2022-09-10T01:15:30.893Z,4.25
2022-09-10T01:18:22.304Z,4.40
2022-09-10T01:21:08.428Z,4.60
2022-09-10T01:23:53.878Z,4.80
2022-09-10T01:26:36.704Z,4.60
2022-09-10T01:29:06.379Z,5.53
2022-09-10T01:32:07.065Z,4.68
2022-09-10T01:34:42.697Z,5.75
2022-09-10T01:37:18.430Z,4.85
2022-09-10T01:39:47.488Z,4.82
2022-09-10T01:42:15.488Z,4.88
2022-09-10T01:44:48.021Z,5.75
2022-09-10T01:47:35.366Z,5.13
2022-09-10T01:50:39.072Z,5.10
2022-09-10T01:53:51.519Z,5.22
2022-09-10T01:56:48.480Z,5.60
2022-09-10T01:59:34.589Z,4.78
2022-09-10T02:02:10.004Z,4.57
2022-09-10T02:04:38.026Z,4.97
2022-09-10T02:07:07.054Z,5.70
2022-09-10T02:09:34.287Z,4.63
2022-09-10T02:12:02.394Z,4.40
2022-09-10T02:14:29.170Z,4.47
2022-09-10T02:17:01.302Z,4.25
2022-09-10T02:19:28.276Z,5.72
2022-09-10T02:21:57.577Z,4.47
2022-09-10T02:24:24.500Z,4.70
2022-09-10T02:26:51.327Z,5.03
2022-09-10T02:29:19.485Z,5.30
2022-09-10T02:31:47.652Z,5.75
2022-09-10T02:34:16.190Z,6.18
2022-09-10T02:36:43.692Z,5.35
2022-09-10T02:39:10.557Z,7.00
2022-09-10T02:41:41.030Z,5.00
2022-09-10T02:44:08.756Z,4.93
2022-09-10T02:46:35.536Z,4.97
2022-09-10T02:49:03.313Z,5.28
2022-09-10T02:51:30.277Z,4.80
2022-09-10T02:53:57.097Z,5.07
2022-09-10T02:56:23.920Z,3.95
2022-09-10T02:58:51.176Z,4.15
2022-09-10T03:01:21.436Z,3.38
2022-09-10T03:03:55.099Z,3.78
2022-09-10T03:06:23.501Z,3.35
2022-09-10T03:08:51.305Z,3.92
2022-09-10T03:11:18.970Z,3.65
2022-09-10T03:13:46.556Z,3.22
2022-09-10T03:16:13.856Z,3.55
2022-09-10T03:18:41.264Z,3.17
2022-09-10T03:21:18.529Z,4.05
2022-09-10T03:23:48.353Z,3.17
2022-09-10T03:26:17.893Z,3.90
2022-09-10T03:28:45.947Z,3.17
2022-09-10T03:31:13.830Z,4.30
2022-09-10T03:33:41.228Z,3.55
2022-09-10T03:36:09.936Z,3.50
2022-09-10T03:38:36.749Z,4.53
2022-09-10T03:41:03.670Z,3.50
2022-09-10T03:43:30.990Z,3.42
2022-09-10T03:45:57.864Z,3.85
2022-09-10T03:48:24.641Z,3.95
2022-09-10T03:50:51.628Z,3.60
2022-09-10T03:53:19.889Z,3.65
2022-09-10T03:55:48.566Z,3.83
2022-09-10T03:58:16.670Z,4.43
2022-09-10T04:00:44.109Z,3.92
2022-09-10T04:03:14.620Z,3.63
2022-09-10T04:05:45.641Z,4.35
2022-09-10T04:08:13.875Z,3.88
2022-09-10T04:10:42.245Z,3.47
2022-09-10T04:13:09.613Z,3.67
2022-09-10T04:15:37.608Z,3.40
2022-09-10T04:18:06.243Z,3.63
2022-09-10T04:20:34.503Z,3.03
2022-09-10T04:23:01.715Z,3.28
2022-09-10T04:25:28.505Z,3.35
2022-09-10T04:27:55.376Z,3.38
2022-09-10T04:30:22.354Z,3.85
2022-09-10T04:32:50.476Z,3.25
2022-09-10T04:35:17.832Z,3.05
2022-09-10T04:37:44.565Z,3.50
2022-09-10T04:40:11.859Z,2.95
2022-09-10T04:42:39.292Z,3.08
2022-09-10T04:45:07.010Z,3.63
2022-09-10T04:47:34.454Z,4.05
2022-09-10T04:50:01.581Z,3.80
2022-09-10T04:52:29.050Z,3.85
2022-09-10T04:54:56.089Z,3.05
2022-09-10T04:57:23.774Z,3.60
2022-09-10T04:59:50.513Z,4.68
2022-09-10T05:02:17.332Z,3.47
2022-09-10T05:04:44.433Z,4.68
2022-09-10T05:07:11.284Z,4.65
2022-09-10T05:09:38.009Z,5.88
2022-09-10T05:12:05.237Z,5.50
2022-09-10T05:14:32.606Z,4.43
2022-09-10T05:17:00.007Z,3.40
2022-09-10T05:19:27.292Z,4.68
2022-09-10T05:21:54.773Z,4.78
2022-09-10T05:24:21.885Z,5.65
2022-09-10T05:26:48.865Z,3.50
2022-09-10T05:29:16.697Z,3.45
2022-09-10T05:31:43.904Z,3.42
2022-09-10T05:34:11.176Z,3.03
2022-09-10T05:36:38.007Z,3.45
2022-09-10T05:39:05.069Z,3.58
2022-09-10T05:41:32.407Z,3.25
2022-09-10T05:43:59.844Z,2.85
2022-09-10T05:46:28.542Z,3.20
2022-09-10T05:48:55.468Z,2.70
2022-09-10T05:51:22.462Z,2.47
2022-09-10T05:53:50.054Z,3.10
2022-09-10T05:56:17.225Z,2.75
2022-09-10T05:58:45.714Z,3.08
2022-09-10T06:01:12.565Z,3.25
2022-09-10T06:03:40.661Z,3.00
2022-09-10T06:06:07.975Z,3.15
2022-09-10T06:08:35.847Z,3.13
2022-09-10T06:11:06.151Z,3.20
2022-09-10T06:13:34.595Z,3.20
2022-09-10T06:16:01.972Z,3.45
2022-09-10T06:18:30.286Z,2.75
2022-09-10T06:21:28.166Z,3.47
2022-09-10T06:23:55.737Z,2.78
2022-09-10T06:26:22.922Z,3.92
2022-09-10T06:29:30.492Z,3.45
2022-09-10T06:31:57.432Z,3.10
2022-09-10T06:34:24.224Z,3.28
2022-09-10T06:36:51.288Z,3.38
2022-09-10T06:39:18.378Z,3.67
2022-09-10T06:41:52.627Z,4.28
2022-09-10T06:44:19.540Z,3.30
2022-09-10T06:49:33.570Z,4.00
2022-09-10T06:52:01.583Z,3.63
2022-09-10T06:54:28.281Z,3.30
2022-09-10T06:56:55.172Z,3.40
2022-09-10T06:59:21.933Z,3.20
2022-09-10T07:01:49.701Z,3.90
2022-09-10T07:04:16.652Z,3.38
2022-09-10T07:06:43.499Z,3.15
2022-09-10T07:09:10.653Z,3.70
2022-09-10T07:11:41.326Z,3.70
2022-09-10T07:14:12.776Z,4.20
2022-09-10T07:16:41.803Z,2.78
2022-09-10T07:19:13.438Z,3.38
2022-09-10T07:21:40.280Z,3.20
2022-09-10T07:24:07.435Z,2.72
2022-09-10T07:26:34.356Z,3.40
2022-09-10T07:29:01.092Z,3.63
2022-09-10T07:31:30.801Z,3.22
2022-09-10T07:33:58.379Z,2.95
2022-09-10T07:36:28.336Z,2.80
2022-09-10T07:38:57.960Z,3.08
2022-09-10T07:41:28.796Z,4.05
2022-09-10T07:43:55.749Z,3.25
2022-09-10T07:46:25.952Z,3.13
2022-09-10T07:49:00.373Z,2.33
2022-09-10T07:51:30.455Z,3.58
2022-09-10T07:53:58.596Z,3.05
2022-09-10T07:56:25.589Z,3.63
2022-09-10T07:58:54.388Z,3.63
2022-09-10T08:01:21.627Z,2.72
2022-09-10T08:03:48.759Z,3.33
2022-09-10T08:06:16.462Z,3.50
2022-09-10T08:08:43.564Z,3.35
2022-09-10T08:11:17.673Z,3.70
2022-09-10T08:13:50.307Z,4.47
2022-09-10T08:16:23.345Z,3.38
2022-09-10T08:18:51.487Z,2.88
2022-09-10T08:21:20.358Z,3.13
2022-09-10T08:23:52.218Z,2.55
2022-09-10T08:26:18.977Z,2.70
2022-09-10T08:28:45.964Z,2.47
2022-09-10T08:31:13.819Z,3.10
2022-09-10T08:33:40.805Z,2.60
2022-09-10T08:36:10.634Z,2.78
2022-09-10T08:38:40.181Z,3.25
2022-09-10T08:41:18.822Z,2.90
2022-09-10T08:44:04.599Z,2.20
2022-09-10T08:46:48.821Z,3.33
2022-09-10T08:49:38.264Z,3.40
2022-09-10T08:52:15.916Z,3.28
2022-09-10T08:55:06.112Z,3.25
2022-09-10T08:57:35.359Z,3.58
2022-09-10T09:02:48.286Z,3.35
2022-09-10T09:05:22.912Z,3.40
2022-09-10T09:07:51.756Z,3.40
2022-09-10T09:10:20.629Z,3.42
2022-09-10T09:13:02.361Z,2.75
2022-09-10T09:15:48.022Z,2.85
2022-09-10T09:18:20.245Z,2.30
2022-09-10T09:20:51.701Z,2.88
2022-09-10T09:23:28.319Z,2.58
2022-09-10T09:26:04.215Z,2.97
2022-09-10T09:28:46.381Z,2.75
2022-09-10T09:31:17.336Z,2.47
2022-09-10T09:33:46.277Z,3.10
2022-09-10T09:36:18.763Z,3.20
2022-09-10T09:38:49.169Z,2.75
2022-09-10T09:41:23.954Z,3.08
2022-09-10T09:44:01.682Z,2.72
2022-09-10T09:46:28.534Z,2.60
2022-09-10T09:49:00.209Z,2.72
2022-09-10T09:51:35.621Z,2.80
2022-09-10T09:54:56.650Z,2.50
2022-09-10T09:57:15.905Z,2.67
2022-09-10T09:59:43.898Z,3.97
2022-09-10T10:02:12.999Z,5.27
2022-09-10T10:04:54.185Z,4.50
2022-09-10T10:07:32.528Z,3.95
2022-09-10T10:10:07.862Z,3.65
2022-09-10T10:12:49.240Z,3.33
2022-09-10T10:15:42.103Z,3.58
2022-09-10T10:18:29.049Z,3.45
2022-09-10T10:21:18.973Z,3.83
2022-09-10T10:23:46.581Z,4.18
2022-09-10T10:26:21.181Z,3.53
2022-09-10T10:28:50.716Z,3.95
2022-09-10T10:31:18.973Z,4.15
2022-09-10T10:34:05.329Z,4.35
2022-09-10T10:36:54.449Z,4.88
2022-09-10T10:39:39.666Z,3.88
2022-09-10T10:42:15.848Z,4.20
2022-09-10T10:45:13.477Z,4.15
2022-09-10T10:48:10.156Z,3.72
2022-09-10T10:50:55.930Z,3.95
2022-09-10T10:53:55.918Z,4.50
2022-09-10T10:56:32.093Z,3.70
2022-09-10T10:59:17.582Z,3.65
2022-09-10T11:01:54.131Z,3.83
2022-09-10T11:04:42.944Z,4.90
2022-09-10T11:10:01.765Z,3.30
2022-09-10T11:12:35.072Z,2.95
2022-09-10T11:15:22.093Z,3.13
2022-09-10T11:18:24.322Z,3.03
2022-09-10T11:21:00.266Z,3.22
2022-09-10T11:23:45.519Z,2.65
2022-09-10T11:26:22.054Z,2.35
2022-09-10T11:29:04.136Z,2.13
2022-09-10T11:31:34.011Z,2.10
2022-09-10T11:34:11.211Z,2.00
2022-09-10T11:36:56.259Z,2.00
2022-09-10T11:39:29.181Z,1.50
2022-09-10T11:41:59.622Z,1.50
2022-09-10T11:44:46.128Z,1.63
2022-09-10T11:47:24.127Z,1.77
2022-09-10T11:50:11.395Z,1.77
2022-09-10T11:52:38.537Z,2.75
2022-09-10T11:55:08.624Z,2.17
2022-09-10T11:57:48.587Z,1.42
2022-09-10T12:00:17.769Z,1.80
2022-09-10T12:03:18.482Z,1.85
2022-09-10T12:05:51.194Z,1.42
2022-09-10T12:08:49.869Z,1.60
2022-09-10T12:11:35.595Z,1.60
2022-09-10T12:14:18.871Z,1.55
2022-09-10T12:16:49.330Z,1.20
2022-09-10T12:19:26.805Z,1.45
2022-09-10T12:22:02.206Z,1.33
2022-09-10T12:24:32.692Z,1.52
2022-09-10T12:27:05.339Z,1.63
2022-09-10T12:32:38.602Z,1.20
2022-09-10T12:35:31.440Z,1.27
2022-09-10T12:38:35.956Z,2.00
2022-09-10T12:41:04.232Z,1.30
2022-09-10T12:46:10.609Z,1.50
2022-09-10T12:48:41.823Z,1.33
2022-09-10T12:51:21.157Z,1.30
2022-09-10T12:54:27.161Z,1.25
2022-09-10T12:56:53.958Z,1.33
2022-09-10T12:59:51.702Z,1.33
2022-09-10T13:02:24.882Z,1.20
2022-09-10T13:04:58.801Z,1.15
2022-09-10T13:07:34.029Z,1.30
2022-09-10T13:10:08.056Z,1.10
2022-09-10T13:12:36.647Z,1.00
2022-09-10T13:15:04.991Z,2.08
2022-09-10T13:17:47.078Z,0.90
2022-09-10T13:20:23.644Z,1.17
2022-09-10T13:22:56.656Z,1.52
2022-09-10T13:25:36.789Z,1.40
2022-09-10T13:28:29.639Z,1.45
2022-09-10T13:30:59.414Z,1.38
2022-09-10T13:33:30.787Z,1.13
2022-09-10T13:36:30.818Z,1.80
2022-09-10T13:39:23.902Z,1.60
2022-09-10T13:42:15.510Z,1.23
2022-09-10T13:44:43.200Z,1.35
2022-09-10T13:47:15.198Z,1.38
2022-09-10T13:50:00.958Z,1.13
2022-09-10T13:52:31.053Z,1.15
2022-09-10T13:55:02.863Z,1.30
2022-09-10T13:57:45.327Z,1.95
2022-09-10T14:00:18.317Z,1.65
2022-09-10T14:02:47.697Z,1.60
2022-09-10T14:08:10.855Z,1.35
2022-09-10T14:11:00.078Z,1.70
2022-09-10T14:13:33.852Z,1.63
2022-09-10T14:16:03.769Z,1.50
2022-09-10T14:18:39.595Z,1.40
2022-09-10T14:21:06.900Z,1.48
2022-09-10T14:23:35.912Z,1.13
2022-09-10T14:26:23.737Z,1.85
2022-09-10T14:28:57.734Z,1.13
2022-09-10T14:31:27.422Z,1.50
2022-09-10T14:33:56.079Z,1.58
2022-09-10T14:36:29.481Z,1.73
2022-09-10T14:39:19.974Z,1.33
2022-09-10T14:41:47.723Z,1.10
2022-09-10T14:44:23.943Z,1.17
2022-09-10T14:46:57.748Z,1.20
2022-09-10T14:49:36.181Z,1.60
2022-09-10T14:52:03.857Z,1.40
2022-09-10T14:54:32.886Z,1.70
2022-09-10T14:57:13.382Z,1.23
2022-09-10T14:59:42.755Z,1.33
2022-09-10T15:02:28.785Z,1.90
2022-09-10T15:04:56.412Z,1.77
2022-09-10T15:07:23.860Z,1.27
2022-09-10T15:09:53.793Z,1.23
2022-09-10T15:12:30.226Z,1.15
2022-09-10T15:15:00.286Z,1.35
2022-09-10T15:17:27.268Z,1.20
2022-09-10T15:19:56.075Z,1.38
2022-09-10T15:22:28.145Z,1.50
2022-09-10T15:25:11.453Z,1.15
2022-09-10T15:27:38.736Z,1.27
2022-09-10T15:30:06.328Z,1.55
2022-09-10T15:32:33.169Z,1.50
2022-09-10T15:35:00.094Z,1.80
2022-09-10T15:37:27.270Z,1.67
2022-09-10T15:39:54.775Z,1.30
2022-09-10T15:42:21.806Z,1.35
2022-09-10T15:44:48.511Z,1.40
2022-09-10T15:47:15.257Z,1.20
2022-09-10T15:49:42.085Z,1.23
2022-09-10T15:52:10.100Z,1.23
2022-09-10T15:54:36.888Z,1.02
2022-09-10T15:57:03.869Z,0.90
2022-09-10T15:59:30.660Z,0.80
2022-09-10T16:01:57.528Z,1.25
2022-09-10T16:04:25.280Z,0.80
2022-09-10T16:06:52.186Z,1.48
2022-09-10T16:09:19.021Z,1.20
2022-09-10T16:11:48.557Z,0.80
2022-09-10T16:14:16.835Z,1.00
2022-09-10T16:16:43.639Z,0.82
2022-09-10T16:19:13.204Z,1.00
2022-09-10T16:24:08.163Z,1.00
2022-09-10T16:26:37.816Z,1.15
2022-09-10T16:29:26.099Z,1.00
2022-09-10T16:31:53.781Z,0.85
2022-09-10T16:34:22.299Z,1.25
2022-09-10T16:36:49.465Z,1.00
2022-09-10T16:39:17.116Z,0.85
2022-09-10T16:41:48.414Z,0.90
2022-09-10T16:44:17.825Z,0.80
2022-09-10T16:46:46.505Z,1.05
2022-09-10T16:49:14.046Z,0.90
2022-09-10T16:51:46.305Z,0.88
2022-09-10T16:54:14.263Z,0.98
2022-09-10T16:56:43.504Z,1.98
2022-09-10T16:59:15.269Z,3.50
2022-09-10T17:01:44.253Z,3.72
2022-09-10T17:04:32.650Z,2.88
2022-09-10T17:06:59.460Z,2.10
2022-09-10T17:09:26.861Z,1.65
2022-09-10T17:11:54.053Z,2.45
2022-09-10T17:14:20.807Z,1.73
2022-09-10T17:16:48.806Z,2.80
2022-09-10T17:19:21.489Z,1.75
2022-09-10T17:21:53.250Z,1.67
2022-09-10T17:24:22.953Z,1.48
2022-09-10T17:26:50.641Z,1.45
2022-09-10T17:29:20.617Z,1.83
2022-09-10T17:31:48.322Z,1.20
2022-09-10T17:34:16.503Z,1.50
2022-09-10T17:36:46.105Z,1.20
2022-09-10T17:41:40.543Z,0.93
2022-09-10T17:44:08.341Z,1.17
2022-09-10T17:46:36.463Z,1.00
2022-09-10T17:49:04.448Z,1.60
2022-09-10T17:51:34.147Z,1.10
2022-09-10T17:56:30.274Z,0.85
2022-09-10T17:58:59.361Z,1.30
2022-09-10T18:01:30.605Z,0.75
2022-09-10T18:03:57.729Z,1.27
2022-09-10T18:06:25.403Z,1.23
2022-09-10T18:08:53.027Z,1.40
2022-09-10T18:11:23.453Z,1.75
2022-09-10T18:13:52.556Z,1.08
2022-09-10T18:16:22.734Z,1.40
2022-09-10T18:18:55.884Z,1.60
2022-09-10T18:21:27.355Z,2.28
2022-09-10T18:24:05.374Z,1.40
2022-09-10T18:26:34.957Z,1.23
2022-09-10T18:29:11.667Z,1.42
2022-09-10T18:31:42.005Z,2.97
2022-09-10T18:34:11.254Z,1.00
2022-09-10T18:36:38.135Z,1.20
2022-09-10T18:39:07.182Z,1.30
2022-09-10T18:41:38.327Z,1.70
2022-09-10T18:44:08.397Z,1.58
2022-09-10T18:46:36.347Z,1.10
2022-09-10T18:49:04.800Z,1.23
2022-09-10T18:51:31.809Z,1.15
2022-09-10T18:54:01.289Z,1.05
2022-09-10T18:56:32.412Z,1.30
2022-09-10T18:59:05.045Z,1.17
2022-09-10T19:01:31.982Z,1.13
2022-09-10T19:03:59.255Z,1.10
2022-09-10T19:06:30.072Z,1.48
2022-09-10T19:09:04.892Z,1.30
2022-09-10T19:11:42.811Z,4.38
2022-09-10T19:14:39.310Z,1.70
2022-09-10T19:17:06.190Z,1.55
2022-09-10T19:19:35.340Z,1.67
2022-09-10T19:22:06.379Z,1.85
2022-09-10T19:27:21.321Z,1.90
2022-09-10T19:29:49.887Z,1.73
2022-09-10T19:32:17.251Z,1.40
2022-09-10T19:34:44.610Z,1.67
2022-09-10T19:37:11.397Z,2.03
2022-09-10T19:39:38.525Z,1.80
2022-09-10T19:42:07.020Z,1.83
2022-09-10T19:44:33.859Z,1.40
2022-09-10T19:47:00.784Z,2.00
2022-09-10T19:49:27.833Z,1.95
2022-09-10T19:51:54.652Z,1.50
2022-09-10T19:57:43.114Z,4.47
2022-09-10T20:00:24.787Z,2.75
2022-09-10T20:02:57.714Z,3.08
2022-09-10T20:05:25.446Z,3.30
2022-09-10T20:07:52.329Z,2.78
2022-09-10T20:10:19.748Z,2.25
2022-09-10T20:12:46.602Z,2.95
2022-09-10T20:15:13.577Z,2.97
2022-09-10T20:17:40.555Z,2.63
2022-09-10T20:20:07.724Z,3.38
2022-09-10T20:22:38.211Z,2.90
2022-09-10T20:25:06.224Z,2.60
2022-09-10T20:27:33.353Z,4.90
2022-09-10T20:30:00.886Z,2.67
2022-09-10T20:32:27.968Z,3.17
2022-09-10T20:34:56.516Z,3.72
2022-09-10T20:37:25.002Z,3.70
2022-09-10T20:39:53.441Z,3.45
2022-09-10T20:42:20.328Z,3.92
2022-09-10T20:44:47.170Z,3.33
2022-09-10T20:47:14.268Z,4.05
2022-09-10T20:49:41.055Z,5.07
2022-09-10T20:52:07.757Z,5.20
2022-09-10T20:54:34.881Z,5.57
2022-09-10T20:57:02.359Z,4.22
2022-09-10T20:59:30.648Z,3.92
2022-09-10T21:01:57.825Z,3.85
2022-09-10T21:04:24.710Z,5.30
2022-09-10T21:06:51.453Z,4.00
2022-09-10T21:09:18.356Z,5.78
2022-09-10T21:11:45.310Z,5.28
2022-09-10T21:14:12.394Z,8.40
2022-09-10T21:16:41.642Z,5.80
2022-09-10T21:19:14.382Z,5.32
2022-09-10T21:21:45.077Z,6.35
2022-09-10T21:24:29.815Z,6.50
2022-09-10T21:26:57.014Z,5.90
2022-09-10T21:29:23.913Z,5.20
2022-09-10T21:31:50.872Z,7.28
2022-09-10T21:34:18.105Z,7.00
2022-09-10T21:36:45.414Z,5.38
2022-09-10T21:39:17.576Z,5.00
2022-09-10T21:41:47.451Z,6.95
2022-09-10T21:46:44.055Z,5.75
2022-09-10T21:49:11.554Z,6.20
2022-09-10T21:51:38.665Z,4.78
2022-09-10T21:54:05.851Z,4.85
2022-09-10T21:56:33.657Z,4.88
2022-09-10T21:59:01.334Z,4.85
2022-09-10T22:01:30.929Z,5.25
2022-09-10T22:04:01.271Z,5.85
2022-09-10T22:06:30.938Z,6.93
2022-09-10T22:09:00.380Z,6.68
2022-09-10T22:11:39.524Z,6.95
2022-09-10T22:14:12.142Z,5.45
2022-09-10T22:16:39.180Z,7.93
2022-09-10T22:19:11.967Z,7.18
2022-09-10T22:21:38.805Z,7.40
2022-09-10T22:24:06.564Z,7.82
2022-09-10T22:26:34.256Z,6.53
2022-09-10T22:29:02.699Z,8.18
2022-09-10T22:31:34.734Z,6.80
2022-09-10T22:34:04.801Z,6.05
2022-09-10T22:36:34.163Z,6.43
2022-09-10T22:39:03.590Z,6.75
2022-09-10T22:41:34.188Z,6.50
2022-09-10T22:44:02.306Z,5.90
2022-09-10T22:46:30.238Z,6.50
2022-09-10T22:48:57.633Z,7.15
2022-09-10T22:51:27.996Z,6.00
2022-09-10T22:53:56.084Z,6.72
2022-09-10T22:56:28.572Z,7.03
2022-09-10T22:58:57.373Z,6.30
2022-09-10T23:01:27.844Z,6.32
2022-09-10T23:03:59.441Z,6.97
2022-09-10T23:06:28.402Z,6.88
2022-09-10T23:08:57.670Z,6.87
2022-09-10T23:11:28.213Z,6.10
2022-09-10T23:13:57.656Z,6.32
2022-09-10T23:16:48.035Z,9.30
2022-09-10T23:19:17.631Z,7.60
2022-09-10T23:21:46.801Z,6.47
2022-09-10T23:24:17.196Z,5.88
2022-09-10T23:26:45.132Z,6.25
2022-09-10T23:29:12.853Z,8.52
2022-09-10T23:31:41.220Z,8.18
2022-09-10T23:34:16.826Z,7.10
2022-09-10T23:36:45.441Z,7.55
2022-09-10T23:39:20.358Z,7.88
2022-09-10T23:41:48.672Z,7.07
2022-09-10T23:44:15.780Z,6.90
2022-09-10T23:46:42.770Z,6.43
2022-09-10T23:49:09.874Z,5.63
2022-09-10T23:51:37.204Z,6.28
2022-09-10T23:54:04.538Z,6.57
2022-09-10T23:56:32.183Z,8.88
2022-09-10T23:59:03.667Z,7.55
